sensor_id;sensor_type;location;lat;lon;timestamp;temperature;humidity
47490;DHT22;33226;56.996;14.584;2022-07-23T00:00:55;15.40;99.90
47490;DHT22;33226;56.996;14.584;2022-07-23T00:03:21;15.30;99.90
47490;DHT22;33226;56.996;14.584;2022-07-23T00:05:46;15.30;99.90
47490;DHT22;33226;56.996;14.584;2022-07-23T00:08:12;15.30;99.90
47490;DHT22;33226;56.996;14.584;2022-07-23T00:10:38;15.30;99.90
47490;DHT22;33226;56.996;14.584;2022-07-23T00:13:04;15.30;99.90
47490;DHT22;33226;56.996;14.584;2022-07-23T00:15:29;15.20;99.90
47490;DHT22;33226;56.996;14.584;2022-07-23T00:17:55;15.20;99.90
47490;DHT22;33226;56.996;14.584;2022-07-23T00:20:21;15.30;99.90
47490;DHT22;33226;56.996;14.584;2022-07-23T00:22:51;15.30;99.90
47490;DHT22;33226;56.996;14.584;2022-07-23T00:25:18;15.30;99.90
47490;DHT22;33226;56.996;14.584;2022-07-23T00:27:43;15.20;99.90
47490;DHT22;33226;56.996;14.584;2022-07-23T00:30:10;15.20;99.90
47490;DHT22;33226;56.996;14.584;2022-07-23T00:32:53;15.30;99.90
47490;DHT22;33226;56.996;14.584;2022-07-23T00:35:21;15.20;99.90
47490;DHT22;33226;56.996;14.584;2022-07-23T00:37:47;15.30;99.90
47490;DHT22;33226;56.996;14.584;2022-07-23T00:40:12;15.20;99.90
47490;DHT22;33226;56.996;14.584;2022-07-23T00:42:39;15.20;99.90
47490;DHT22;33226;56.996;14.584;2022-07-23T00:45:05;15.20;99.90
47490;DHT22;33226;56.996;14.584;2022-07-23T00:47:31;15.30;99.90
47490;DHT22;33226;56.996;14.584;2022-07-23T00:49:57;15.30;99.90
47490;DHT22;33226;56.996;14.584;2022-07-23T00:52:22;15.30;99.90
47490;DHT22;33226;56.996;14.584;2022-07-23T00:54:48;15.30;99.90
47490;DHT22;33226;56.996;14.584;2022-07-23T00:57:14;15.30;99.90
47490;DHT22;33226;56.996;14.584;2022-07-23T00:59:40;15.30;99.90
47490;DHT22;33226;56.996;14.584;2022-07-23T01:02:06;15.30;99.90
47490;DHT22;33226;56.996;14.584;2022-07-23T01:04:32;15.30;99.90
47490;DHT22;33226;56.996;14.584;2022-07-23T01:06:58;15.30;99.90
47490;DHT22;33226;56.996;14.584;2022-07-23T01:09:24;15.30;99.90
47490;DHT22;33226;56.996;14.584;2022-07-23T01:11:50;15.30;99.90
47490;DHT22;33226;56.996;14.584;2022-07-23T01:14:18;15.30;99.90
47490;DHT22;33226;56.996;14.584;2022-07-23T01:16:45;15.30;99.90
47490;DHT22;33226;56.996;14.584;2022-07-23T01:19:11;15.30;99.90
47490;DHT22;33226;56.996;14.584;2022-07-23T01:21:43;15.30;99.90
47490;DHT22;33226;56.996;14.584;2022-07-23T01:24:09;15.40;99.90
47490;DHT22;33226;56.996;14.584;2022-07-23T01:26:36;15.40;99.90
47490;DHT22;33226;56.996;14.584;2022-07-23T01:29:02;15.40;99.90
47490;DHT22;33226;56.996;14.584;2022-07-23T01:31:28;15.40;99.90
47490;DHT22;33226;56.996;14.584;2022-07-23T01:33:54;15.40;99.90
47490;DHT22;33226;56.996;14.584;2022-07-23T01:36:20;15.40;99.90
47490;DHT22;33226;56.996;14.584;2022-07-23T01:38:45;15.30;99.90
47490;DHT22;33226;56.996;14.584;2022-07-23T01:41:11;15.30;99.90
47490;DHT22;33226;56.996;14.584;2022-07-23T01:43:37;15.30;99.90
47490;DHT22;33226;56.996;14.584;2022-07-23T01:46:02;15.30;99.90
47490;DHT22;33226;56.996;14.584;2022-07-23T01:48:28;15.40;99.90
47490;DHT22;33226;56.996;14.584;2022-07-23T01:50:54;15.30;99.90
47490;DHT22;33226;56.996;14.584;2022-07-23T01:53:19;15.30;99.90
47490;DHT22;33226;56.996;14.584;2022-07-23T01:55:45;15.30;99.90
47490;DHT22;33226;56.996;14.584;2022-07-23T01:58:10;15.40;99.90
47490;DHT22;33226;56.996;14.584;2022-07-23T02:00:36;15.30;99.90
47490;DHT22;33226;56.996;14.584;2022-07-23T02:03:02;15.30;99.90
47490;DHT22;33226;56.996;14.584;2022-07-23T02:05:28;15.30;99.90
47490;DHT22;33226;56.996;14.584;2022-07-23T02:07:55;15.30;99.90
47490;DHT22;33226;56.996;14.584;2022-07-23T02:10:21;15.20;99.90
47490;DHT22;33226;56.996;14.584;2022-07-23T02:12:47;15.30;99.90
47490;DHT22;33226;56.996;14.584;2022-07-23T02:15:13;15.30;99.90
47490;DHT22;33226;56.996;14.584;2022-07-23T02:17:39;15.30;99.90
47490;DHT22;33226;56.996;14.584;2022-07-23T02:20:06;15.20;99.90
47490;DHT22;33226;56.996;14.584;2022-07-23T02:22:32;15.20;99.90
47490;DHT22;33226;56.996;14.584;2022-07-23T02:24:58;15.20;99.90
47490;DHT22;33226;56.996;14.584;2022-07-23T02:27:23;15.20;99.90
47490;DHT22;33226;56.996;14.584;2022-07-23T02:29:49;15.20;99.90
47490;DHT22;33226;56.996;14.584;2022-07-23T02:32:15;15.10;99.90
47490;DHT22;33226;56.996;14.584;2022-07-23T02:34:41;15.10;99.90
47490;DHT22;33226;56.996;14.584;2022-07-23T02:37:07;15.10;99.90
47490;DHT22;33226;56.996;14.584;2022-07-23T02:39:36;15.10;99.90
47490;DHT22;33226;56.996;14.584;2022-07-23T02:42:02;15.10;99.90
47490;DHT22;33226;56.996;14.584;2022-07-23T02:44:28;15.10;99.90
47490;DHT22;33226;56.996;14.584;2022-07-23T02:46:53;15.00;99.90
47490;DHT22;33226;56.996;14.584;2022-07-23T02:49:19;15.00;99.90
47490;DHT22;33226;56.996;14.584;2022-07-23T02:51:45;15.00;99.90
47490;DHT22;33226;56.996;14.584;2022-07-23T02:54:10;15.00;99.90
47490;DHT22;33226;56.996;14.584;2022-07-23T02:56:36;15.00;99.90
47490;DHT22;33226;56.996;14.584;2022-07-23T02:59:01;14.90;99.90
47490;DHT22;33226;56.996;14.584;2022-07-23T03:01:27;15.00;99.90
47490;DHT22;33226;56.996;14.584;2022-07-23T03:03:52;14.90;99.90
47490;DHT22;33226;56.996;14.584;2022-07-23T03:06:18;15.00;99.90
47490;DHT22;33226;56.996;14.584;2022-07-23T03:08:44;14.90;99.90
47490;DHT22;33226;56.996;14.584;2022-07-23T03:11:09;15.00;99.90
47490;DHT22;33226;56.996;14.584;2022-07-23T03:13:38;15.00;99.90
47490;DHT22;33226;56.996;14.584;2022-07-23T03:16:04;15.00;99.90
47490;DHT22;33226;56.996;14.584;2022-07-23T03:18:30;15.00;99.90
47490;DHT22;33226;56.996;14.584;2022-07-23T03:20:56;15.00;99.90
47490;DHT22;33226;56.996;14.584;2022-07-23T03:23:22;15.00;99.90
47490;DHT22;33226;56.996;14.584;2022-07-23T03:25:47;15.00;99.90
47490;DHT22;33226;56.996;14.584;2022-07-23T03:28:14;15.00;99.90
47490;DHT22;33226;56.996;14.584;2022-07-23T03:30:42;15.00;99.90
47490;DHT22;33226;56.996;14.584;2022-07-23T03:33:07;15.00;99.90
47490;DHT22;33226;56.996;14.584;2022-07-23T03:35:33;15.00;99.90
47490;DHT22;33226;56.996;14.584;2022-07-23T03:37:58;15.00;99.90
47490;DHT22;33226;56.996;14.584;2022-07-23T03:40:24;15.00;99.90
47490;DHT22;33226;56.996;14.584;2022-07-23T03:42:50;15.00;99.90
47490;DHT22;33226;56.996;14.584;2022-07-23T03:45:16;15.00;99.90
47490;DHT22;33226;56.996;14.584;2022-07-23T03:47:41;15.00;99.90
47490;DHT22;33226;56.996;14.584;2022-07-23T03:50:08;15.00;99.90
47490;DHT22;33226;56.996;14.584;2022-07-23T03:52:34;15.10;99.90
47490;DHT22;33226;56.996;14.584;2022-07-23T03:55:00;15.10;99.90
47490;DHT22;33226;56.996;14.584;2022-07-23T03:57:26;15.10;99.90
47490;DHT22;33226;56.996;14.584;2022-07-23T03:59:52;15.10;99.90
47490;DHT22;33226;56.996;14.584;2022-07-23T04:02:17;15.10;99.90
47490;DHT22;33226;56.996;14.584;2022-07-23T04:04:43;15.10;99.90
47490;DHT22;33226;56.996;14.584;2022-07-23T04:07:08;15.10;99.90
47490;DHT22;33226;56.996;14.584;2022-07-23T04:09:34;15.10;99.90
47490;DHT22;33226;56.996;14.584;2022-07-23T04:12:00;15.10;99.90
47490;DHT22;33226;56.996;14.584;2022-07-23T04:14:26;15.20;99.90
47490;DHT22;33226;56.996;14.584;2022-07-23T04:16:52;15.10;99.90
47490;DHT22;33226;56.996;14.584;2022-07-23T04:19:17;15.10;99.90
47490;DHT22;33226;56.996;14.584;2022-07-23T04:21:43;15.10;99.90
47490;DHT22;33226;56.996;14.584;2022-07-23T04:24:09;15.10;99.90
47490;DHT22;33226;56.996;14.584;2022-07-23T04:26:34;15.20;99.90
47490;DHT22;33226;56.996;14.584;2022-07-23T04:29:00;15.10;99.90
47490;DHT22;33226;56.996;14.584;2022-07-23T04:31:26;15.10;99.90
47490;DHT22;33226;56.996;14.584;2022-07-23T04:33:51;15.10;99.90
47490;DHT22;33226;56.996;14.584;2022-07-23T04:36:17;15.10;99.90
47490;DHT22;33226;56.996;14.584;2022-07-23T04:38:42;15.10;99.90
47490;DHT22;33226;56.996;14.584;2022-07-23T04:41:08;15.20;99.90
47490;DHT22;33226;56.996;14.584;2022-07-23T04:43:34;15.10;99.90
47490;DHT22;33226;56.996;14.584;2022-07-23T04:45:59;15.20;99.90
47490;DHT22;33226;56.996;14.584;2022-07-23T04:48:25;15.20;99.90
47490;DHT22;33226;56.996;14.584;2022-07-23T04:50:50;15.20;99.90
47490;DHT22;33226;56.996;14.584;2022-07-23T04:53:16;15.20;99.90
47490;DHT22;33226;56.996;14.584;2022-07-23T04:55:43;15.20;99.90
47490;DHT22;33226;56.996;14.584;2022-07-23T04:58:09;15.30;99.90
47490;DHT22;33226;56.996;14.584;2022-07-23T05:00:35;15.20;99.90
47490;DHT22;33226;56.996;14.584;2022-07-23T05:03:00;15.30;99.90
47490;DHT22;33226;56.996;14.584;2022-07-23T05:05:26;15.30;99.90
47490;DHT22;33226;56.996;14.584;2022-07-23T05:07:51;15.20;99.90
47490;DHT22;33226;56.996;14.584;2022-07-23T05:10:17;15.20;99.90
47490;DHT22;33226;56.996;14.584;2022-07-23T05:12:43;15.20;99.90
47490;DHT22;33226;56.996;14.584;2022-07-23T05:15:08;15.20;99.90
47490;DHT22;33226;56.996;14.584;2022-07-23T05:17:34;15.20;99.90
47490;DHT22;33226;56.996;14.584;2022-07-23T05:19:59;15.20;99.90
47490;DHT22;33226;56.996;14.584;2022-07-23T05:22:25;15.20;99.90
47490;DHT22;33226;56.996;14.584;2022-07-23T05:24:51;15.30;99.90
47490;DHT22;33226;56.996;14.584;2022-07-23T05:27:16;15.30;99.90
47490;DHT22;33226;56.996;14.584;2022-07-23T05:29:42;15.20;99.90
47490;DHT22;33226;56.996;14.584;2022-07-23T05:32:08;15.30;99.90
47490;DHT22;33226;56.996;14.584;2022-07-23T05:34:33;15.30;99.90
47490;DHT22;33226;56.996;14.584;2022-07-23T05:36:59;15.30;99.90
47490;DHT22;33226;56.996;14.584;2022-07-23T05:39:24;15.30;99.90
47490;DHT22;33226;56.996;14.584;2022-07-23T05:41:50;15.40;99.90
47490;DHT22;33226;56.996;14.584;2022-07-23T05:44:16;15.40;99.90
47490;DHT22;33226;56.996;14.584;2022-07-23T05:46:41;15.30;99.90
47490;DHT22;33226;56.996;14.584;2022-07-23T05:49:07;15.40;99.90
47490;DHT22;33226;56.996;14.584;2022-07-23T05:51:33;15.30;99.90
47490;DHT22;33226;56.996;14.584;2022-07-23T05:53:58;15.30;99.90
47490;DHT22;33226;56.996;14.584;2022-07-23T05:56:24;15.30;99.90
47490;DHT22;33226;56.996;14.584;2022-07-23T05:58:49;15.40;99.90
47490;DHT22;33226;56.996;14.584;2022-07-23T06:01:15;15.40;99.90
47490;DHT22;33226;56.996;14.584;2022-07-23T06:03:41;15.30;99.90
47490;DHT22;33226;56.996;14.584;2022-07-23T06:06:06;15.30;99.90
47490;DHT22;33226;56.996;14.584;2022-07-23T06:08:32;15.30;99.90
47490;DHT22;33226;56.996;14.584;2022-07-23T06:10:58;15.30;99.90
47490;DHT22;33226;56.996;14.584;2022-07-23T06:13:24;15.30;99.90
47490;DHT22;33226;56.996;14.584;2022-07-23T06:15:49;15.40;99.90
47490;DHT22;33226;56.996;14.584;2022-07-23T06:18:15;15.40;99.90
47490;DHT22;33226;56.996;14.584;2022-07-23T06:20:40;15.40;99.90
47490;DHT22;33226;56.996;14.584;2022-07-23T06:23:06;15.50;99.90
47490;DHT22;33226;56.996;14.584;2022-07-23T06:25:32;15.60;99.90
47490;DHT22;33226;56.996;14.584;2022-07-23T06:27:57;15.60;99.90
47490;DHT22;33226;56.996;14.584;2022-07-23T06:30:23;15.60;99.90
47490;DHT22;33226;56.996;14.584;2022-07-23T06:32:49;15.60;99.90
47490;DHT22;33226;56.996;14.584;2022-07-23T06:35:15;15.60;99.90
47490;DHT22;33226;56.996;14.584;2022-07-23T06:37:41;15.60;99.90
47490;DHT22;33226;56.996;14.584;2022-07-23T06:40:07;15.70;99.90
47490;DHT22;33226;56.996;14.584;2022-07-23T06:42:32;15.70;99.90
47490;DHT22;33226;56.996;14.584;2022-07-23T06:44:58;15.70;99.90
47490;DHT22;33226;56.996;14.584;2022-07-23T06:47:24;15.80;99.90
47490;DHT22;33226;56.996;14.584;2022-07-23T06:49:49;15.80;99.90
47490;DHT22;33226;56.996;14.584;2022-07-23T06:52:15;15.90;99.90
47490;DHT22;33226;56.996;14.584;2022-07-23T06:54:41;15.90;99.90
47490;DHT22;33226;56.996;14.584;2022-07-23T06:57:06;15.90;99.90
47490;DHT22;33226;56.996;14.584;2022-07-23T06:59:32;15.90;99.90
47490;DHT22;33226;56.996;14.584;2022-07-23T07:01:58;15.90;99.90
47490;DHT22;33226;56.996;14.584;2022-07-23T07:04:24;16.00;99.90
47490;DHT22;33226;56.996;14.584;2022-07-23T07:06:50;16.00;99.90
47490;DHT22;33226;56.996;14.584;2022-07-23T07:09:15;16.00;99.90
47490;DHT22;33226;56.996;14.584;2022-07-23T07:11:41;15.90;99.90
47490;DHT22;33226;56.996;14.584;2022-07-23T07:14:07;16.00;99.90
47490;DHT22;33226;56.996;14.584;2022-07-23T07:16:32;15.90;99.90
47490;DHT22;33226;56.996;14.584;2022-07-23T07:18:58;16.00;99.90
47490;DHT22;33226;56.996;14.584;2022-07-23T07:21:24;16.00;99.90
47490;DHT22;33226;56.996;14.584;2022-07-23T07:23:49;16.00;99.90
47490;DHT22;33226;56.996;14.584;2022-07-23T07:26:15;15.90;99.90
47490;DHT22;33226;56.996;14.584;2022-07-23T07:28:41;15.90;99.90
47490;DHT22;33226;56.996;14.584;2022-07-23T07:31:06;16.00;99.90
47490;DHT22;33226;56.996;14.584;2022-07-23T07:33:32;15.90;99.90
47490;DHT22;33226;56.996;14.584;2022-07-23T07:35:57;15.90;99.90
47490;DHT22;33226;56.996;14.584;2022-07-23T07:38:24;15.90;99.90
47490;DHT22;33226;56.996;14.584;2022-07-23T07:40:49;15.90;99.90
47490;DHT22;33226;56.996;14.584;2022-07-23T07:43:15;15.90;99.90
47490;DHT22;33226;56.996;14.584;2022-07-23T07:45:41;15.90;99.90
47490;DHT22;33226;56.996;14.584;2022-07-23T07:48:07;15.90;99.90
47490;DHT22;33226;56.996;14.584;2022-07-23T07:50:32;16.00;99.90
47490;DHT22;33226;56.996;14.584;2022-07-23T07:52:58;16.00;99.90
47490;DHT22;33226;56.996;14.584;2022-07-23T07:55:24;16.00;99.90
47490;DHT22;33226;56.996;14.584;2022-07-23T07:57:49;16.10;99.90
47490;DHT22;33226;56.996;14.584;2022-07-23T08:00:16;16.10;99.90
47490;DHT22;33226;56.996;14.584;2022-07-23T08:02:49;16.20;99.90
47490;DHT22;33226;56.996;14.584;2022-07-23T08:05:19;16.30;99.90
47490;DHT22;33226;56.996;14.584;2022-07-23T08:07:46;16.30;99.90
47490;DHT22;33226;56.996;14.584;2022-07-23T08:10:11;16.40;99.90
47490;DHT22;33226;56.996;14.584;2022-07-23T08:12:50;16.50;99.90
47490;DHT22;33226;56.996;14.584;2022-07-23T08:15:18;16.50;99.90
47490;DHT22;33226;56.996;14.584;2022-07-23T08:17:45;16.50;99.90
47490;DHT22;33226;56.996;14.584;2022-07-23T08:20:12;16.50;99.90
47490;DHT22;33226;56.996;14.584;2022-07-23T08:22:57;16.50;99.90
47490;DHT22;33226;56.996;14.584;2022-07-23T08:25:31;16.50;99.90
47490;DHT22;33226;56.996;14.584;2022-07-23T08:27:58;16.50;99.90
47490;DHT22;33226;56.996;14.584;2022-07-23T08:30:24;16.40;99.90
47490;DHT22;33226;56.996;14.584;2022-07-23T08:35:47;16.40;99.90
47490;DHT22;33226;56.996;14.584;2022-07-23T08:38:15;16.40;99.90
47490;DHT22;33226;56.996;14.584;2022-07-23T08:40:47;16.40;99.90
47490;DHT22;33226;56.996;14.584;2022-07-23T08:43:16;16.40;99.90
47490;DHT22;33226;56.996;14.584;2022-07-23T08:45:49;16.40;99.90
47490;DHT22;33226;56.996;14.584;2022-07-23T08:48:20;16.40;99.90
47490;DHT22;33226;56.996;14.584;2022-07-23T08:50:49;16.40;99.90
47490;DHT22;33226;56.996;14.584;2022-07-23T08:53:16;16.50;99.90
47490;DHT22;33226;56.996;14.584;2022-07-23T08:55:44;16.40;99.90
47490;DHT22;33226;56.996;14.584;2022-07-23T08:58:11;16.50;99.90
47490;DHT22;33226;56.996;14.584;2022-07-23T09:00:37;16.50;99.90
47490;DHT22;33226;56.996;14.584;2022-07-23T09:03:02;16.60;99.90
47490;DHT22;33226;56.996;14.584;2022-07-23T09:05:28;16.70;99.90
47490;DHT22;33226;56.996;14.584;2022-07-23T09:08:07;16.70;99.90
47490;DHT22;33226;56.996;14.584;2022-07-23T09:15:52;17.00;99.90
47490;DHT22;33226;56.996;14.584;2022-07-23T09:18:17;17.10;99.90
47490;DHT22;33226;56.996;14.584;2022-07-23T09:20:44;17.20;99.90
47490;DHT22;33226;56.996;14.584;2022-07-23T09:23:09;17.30;99.90
47490;DHT22;33226;56.996;14.584;2022-07-23T09:25:35;17.40;99.90
47490;DHT22;33226;56.996;14.584;2022-07-23T09:28:01;17.50;99.90
47490;DHT22;33226;56.996;14.584;2022-07-23T09:30:32;17.60;99.90
47490;DHT22;33226;56.996;14.584;2022-07-23T09:33:13;17.70;99.90
47490;DHT22;33226;56.996;14.584;2022-07-23T09:35:54;17.80;99.90
47490;DHT22;33226;56.996;14.584;2022-07-23T09:38:23;17.80;99.90
47490;DHT22;33226;56.996;14.584;2022-07-23T09:41:09;17.80;99.90
47490;DHT22;33226;56.996;14.584;2022-07-23T09:43:35;17.90;99.90
47490;DHT22;33226;56.996;14.584;2022-07-23T09:48:50;18.20;99.90
47490;DHT22;33226;56.996;14.584;2022-07-23T09:51:21;18.30;99.90
47490;DHT22;33226;56.996;14.584;2022-07-23T09:53:53;18.40;99.90
47490;DHT22;33226;56.996;14.584;2022-07-23T09:56:20;18.50;99.90
47490;DHT22;33226;56.996;14.584;2022-07-23T09:58:45;18.70;99.90
47490;DHT22;33226;56.996;14.584;2022-07-23T10:01:16;18.90;99.90
47490;DHT22;33226;56.996;14.584;2022-07-23T10:03:42;19.00;99.90
47490;DHT22;33226;56.996;14.584;2022-07-23T10:06:13;19.20;99.90
47490;DHT22;33226;56.996;14.584;2022-07-23T10:08:41;19.50;99.90
47490;DHT22;33226;56.996;14.584;2022-07-23T10:11:09;19.60;99.90
47490;DHT22;33226;56.996;14.584;2022-07-23T10:13:36;19.60;99.90
47490;DHT22;33226;56.996;14.584;2022-07-23T10:16:22;19.60;99.90
47490;DHT22;33226;56.996;14.584;2022-07-23T10:18:48;19.50;99.90
47490;DHT22;33226;56.996;14.584;2022-07-23T10:21:21;19.40;99.90
47490;DHT22;33226;56.996;14.584;2022-07-23T10:27:09;19.50;99.90
47490;DHT22;33226;56.996;14.584;2022-07-23T10:32:20;19.50;99.90
47490;DHT22;33226;56.996;14.584;2022-07-23T10:37:34;19.40;99.90
47490;DHT22;33226;56.996;14.584;2022-07-23T10:40:10;19.30;99.90
47490;DHT22;33226;56.996;14.584;2022-07-23T10:42:36;19.30;99.90
47490;DHT22;33226;56.996;14.584;2022-07-23T10:45:22;19.30;99.90
47490;DHT22;33226;56.996;14.584;2022-07-23T10:47:48;19.30;99.90
47490;DHT22;33226;56.996;14.584;2022-07-23T10:50:24;19.20;99.90
47490;DHT22;33226;56.996;14.584;2022-07-23T10:53:09;19.40;99.90
47490;DHT22;33226;56.996;14.584;2022-07-23T10:58:05;19.70;99.90
47490;DHT22;33226;56.996;14.584;2022-07-23T11:00:33;19.80;99.90
47490;DHT22;33226;56.996;14.584;2022-07-23T11:03:01;19.90;99.90
47490;DHT22;33226;56.996;14.584;2022-07-23T11:05:44;20.10;99.90
47490;DHT22;33226;56.996;14.584;2022-07-23T11:10:43;20.40;99.90
47490;DHT22;33226;56.996;14.584;2022-07-23T11:24:12;20.80;99.90
47490;DHT22;33226;56.996;14.584;2022-07-23T11:37:09;20.10;99.90
47490;DHT22;33226;56.996;14.584;2022-07-23T11:39:36;20.00;99.90
47490;DHT22;33226;56.996;14.584;2022-07-23T11:42:03;19.80;99.90
47490;DHT22;33226;56.996;14.584;2022-07-23T11:44:39;19.70;99.90
47490;DHT22;33226;56.996;14.584;2022-07-23T11:47:10;19.50;99.90
47490;DHT22;33226;56.996;14.584;2022-07-23T11:49:37;19.50;99.90
47490;DHT22;33226;56.996;14.584;2022-07-23T11:52:11;19.40;99.90
47490;DHT22;33226;56.996;14.584;2022-07-23T11:57:33;19.30;99.90
47490;DHT22;33226;56.996;14.584;2022-07-23T12:00:13;19.40;99.90
47490;DHT22;33226;56.996;14.584;2022-07-23T12:02:42;19.40;99.90
47490;DHT22;33226;56.996;14.584;2022-07-23T12:05:15;19.60;99.90
47490;DHT22;33226;56.996;14.584;2022-07-23T12:07:46;19.60;99.90
47490;DHT22;33226;56.996;14.584;2022-07-23T12:15:17;19.90;99.90
47490;DHT22;33226;56.996;14.584;2022-07-23T12:17:45;20.00;99.90
47490;DHT22;33226;56.996;14.584;2022-07-23T12:20:24;19.90;99.90
47490;DHT22;33226;56.996;14.584;2022-07-23T12:22:53;19.90;99.90
47490;DHT22;33226;56.996;14.584;2022-07-23T12:25:23;19.90;99.90
47490;DHT22;33226;56.996;14.584;2022-07-23T12:30:50;19.60;99.90
47490;DHT22;33226;56.996;14.584;2022-07-23T12:33:29;19.60;99.90
47490;DHT22;33226;56.996;14.584;2022-07-23T12:35:59;19.40;99.90
47490;DHT22;33226;56.996;14.584;2022-07-23T12:38:27;19.50;99.90
47490;DHT22;33226;56.996;14.584;2022-07-23T12:43:22;19.60;99.90
47490;DHT22;33226;56.996;14.584;2022-07-23T12:45:52;19.80;99.90
47490;DHT22;33226;56.996;14.584;2022-07-23T12:48:35;19.90;99.90
47490;DHT22;33226;56.996;14.584;2022-07-23T12:51:46;20.00;99.90
47490;DHT22;33226;56.996;14.584;2022-07-23T12:54:08;20.10;99.90
47490;DHT22;33226;56.996;14.584;2022-07-23T12:56:37;20.10;99.90
47490;DHT22;33226;56.996;14.584;2022-07-23T12:59:11;20.10;99.90
47490;DHT22;33226;56.996;14.584;2022-07-23T13:01:39;20.20;99.90
47490;DHT22;33226;56.996;14.584;2022-07-23T13:06:48;20.20;99.90
47490;DHT22;33226;56.996;14.584;2022-07-23T13:09:19;20.30;99.90
47490;DHT22;33226;56.996;14.584;2022-07-23T13:11:47;20.40;99.90
47490;DHT22;33226;56.996;14.584;2022-07-23T13:14:14;20.50;99.90
47490;DHT22;33226;56.996;14.584;2022-07-23T13:16:40;20.60;99.90
47490;DHT22;33226;56.996;14.584;2022-07-23T13:19:06;20.70;99.90
47490;DHT22;33226;56.996;14.584;2022-07-23T13:21:32;20.80;99.90
47490;DHT22;33226;56.996;14.584;2022-07-23T13:23:58;21.00;99.90
47490;DHT22;33226;56.996;14.584;2022-07-23T13:26:25;21.00;99.90
47490;DHT22;33226;56.996;14.584;2022-07-23T13:28:51;21.20;99.90
47490;DHT22;33226;56.996;14.584;2022-07-23T13:31:17;21.20;99.90
47490;DHT22;33226;56.996;14.584;2022-07-23T13:33:43;21.20;99.90
47490;DHT22;33226;56.996;14.584;2022-07-23T13:36:08;21.10;99.90
47490;DHT22;33226;56.996;14.584;2022-07-23T13:38:34;21.10;99.90
47490;DHT22;33226;56.996;14.584;2022-07-23T13:41:01;21.10;99.90
47490;DHT22;33226;56.996;14.584;2022-07-23T13:43:29;21.10;99.90
47490;DHT22;33226;56.996;14.584;2022-07-23T13:45:54;21.20;99.90
47490;DHT22;33226;56.996;14.584;2022-07-23T13:48:20;21.40;99.90
47490;DHT22;33226;56.996;14.584;2022-07-23T13:50:46;21.50;99.90
47490;DHT22;33226;56.996;14.584;2022-07-23T13:53:14;21.70;99.90
47490;DHT22;33226;56.996;14.584;2022-07-23T13:55:41;21.90;99.90
47490;DHT22;33226;56.996;14.584;2022-07-23T13:58:08;22.00;99.90
47490;DHT22;33226;56.996;14.584;2022-07-23T14:00:36;22.00;99.90
47490;DHT22;33226;56.996;14.584;2022-07-23T14:03:02;22.10;99.90
47490;DHT22;33226;56.996;14.584;2022-07-23T14:05:29;22.10;99.90
47490;DHT22;33226;56.996;14.584;2022-07-23T14:07:55;22.10;99.90
47490;DHT22;33226;56.996;14.584;2022-07-23T14:10:21;22.10;99.90
47490;DHT22;33226;56.996;14.584;2022-07-23T14:12:48;22.10;99.90
47490;DHT22;33226;56.996;14.584;2022-07-23T14:15:14;22.00;99.90
47490;DHT22;33226;56.996;14.584;2022-07-23T14:17:42;22.00;99.90
47490;DHT22;33226;56.996;14.584;2022-07-23T14:20:09;22.00;99.90
47490;DHT22;33226;56.996;14.584;2022-07-23T14:22:35;21.70;99.90
47490;DHT22;33226;56.996;14.584;2022-07-23T14:25:01;21.60;99.90
47490;DHT22;33226;56.996;14.584;2022-07-23T14:27:28;21.60;99.90
47490;DHT22;33226;56.996;14.584;2022-07-23T14:29:54;21.60;99.90
47490;DHT22;33226;56.996;14.584;2022-07-23T14:32:20;21.50;99.90
47490;DHT22;33226;56.996;14.584;2022-07-23T14:34:46;21.50;99.90
47490;DHT22;33226;56.996;14.584;2022-07-23T14:37:12;21.60;99.90
47490;DHT22;33226;56.996;14.584;2022-07-23T14:39:38;21.60;99.90
47490;DHT22;33226;56.996;14.584;2022-07-23T14:42:05;21.70;99.90
47490;DHT22;33226;56.996;14.584;2022-07-23T14:44:31;21.70;99.90
47490;DHT22;33226;56.996;14.584;2022-07-23T14:46:56;21.80;99.90
47490;DHT22;33226;56.996;14.584;2022-07-23T14:49:22;21.90;99.90
47490;DHT22;33226;56.996;14.584;2022-07-23T14:51:48;21.90;99.90
47490;DHT22;33226;56.996;14.584;2022-07-23T14:54:13;21.90;99.90
47490;DHT22;33226;56.996;14.584;2022-07-23T14:56:40;21.90;99.90
47490;DHT22;33226;56.996;14.584;2022-07-23T14:59:06;21.90;99.90
47490;DHT22;33226;56.996;14.584;2022-07-23T15:01:32;21.80;99.90
47490;DHT22;33226;56.996;14.584;2022-07-23T15:03:58;21.60;99.90
47490;DHT22;33226;56.996;14.584;2022-07-23T15:06:24;21.50;99.90
47490;DHT22;33226;56.996;14.584;2022-07-23T15:08:50;21.50;99.90
47490;DHT22;33226;56.996;14.584;2022-07-23T15:11:16;21.30;99.90
47490;DHT22;33226;56.996;14.584;2022-07-23T15:13:42;21.20;99.90
47490;DHT22;33226;56.996;14.584;2022-07-23T15:16:08;21.20;99.90
47490;DHT22;33226;56.996;14.584;2022-07-23T15:18:34;21.00;99.90
47490;DHT22;33226;56.996;14.584;2022-07-23T15:21:00;21.00;99.90
47490;DHT22;33226;56.996;14.584;2022-07-23T15:23:26;20.90;99.90
47490;DHT22;33226;56.996;14.584;2022-07-23T15:25:57;20.80;99.90
47490;DHT22;33226;56.996;14.584;2022-07-23T15:28:23;20.70;99.90
47490;DHT22;33226;56.996;14.584;2022-07-23T15:30:50;20.80;99.90
47490;DHT22;33226;56.996;14.584;2022-07-23T15:33:16;20.70;99.90
47490;DHT22;33226;56.996;14.584;2022-07-23T15:35:42;20.70;99.90
47490;DHT22;33226;56.996;14.584;2022-07-23T15:38:08;20.70;99.90
47490;DHT22;33226;56.996;14.584;2022-07-23T15:40:33;20.70;99.90
47490;DHT22;33226;56.996;14.584;2022-07-23T15:43:00;20.70;99.90
47490;DHT22;33226;56.996;14.584;2022-07-23T15:45:26;20.70;99.90
47490;DHT22;33226;56.996;14.584;2022-07-23T15:47:51;20.60;99.90
47490;DHT22;33226;56.996;14.584;2022-07-23T15:50:17;20.50;99.90
47490;DHT22;33226;56.996;14.584;2022-07-23T15:52:43;20.30;99.90
47490;DHT22;33226;56.996;14.584;2022-07-23T15:55:09;20.30;99.90
47490;DHT22;33226;56.996;14.584;2022-07-23T15:57:35;20.30;99.90
47490;DHT22;33226;56.996;14.584;2022-07-23T16:00:01;20.20;99.90
47490;DHT22;33226;56.996;14.584;2022-07-23T16:02:27;20.10;99.90
47490;DHT22;33226;56.996;14.584;2022-07-23T16:04:52;20.10;99.90
47490;DHT22;33226;56.996;14.584;2022-07-23T16:07:19;20.00;99.90
47490;DHT22;33226;56.996;14.584;2022-07-23T16:09:45;20.00;99.90
47490;DHT22;33226;56.996;14.584;2022-07-23T16:12:11;19.90;99.90
47490;DHT22;33226;56.996;14.584;2022-07-23T16:14:37;19.90;99.90
47490;DHT22;33226;56.996;14.584;2022-07-23T16:17:03;19.80;99.90